Time;durP1;ratioP1;P1;durP2;ratioP2;P2;SDS_P1;SDS_P2;PMS_P1;PMS_P2;Temp;Humidity;BMP_temperature;BMP_pressure;BME280_temperature;BME280_humidity;BME280_pressure;Samples;Min_cycle;Max_cycle;Signal;HPM_P1;HPM_P2
2024/04/10 00:02:13;;;;;;;5.28;0.50;;;;;;;;;;5492047;26;19994;-73
2024/04/10 00:04:39;;;;;;;1.85;0.47;;;;;;;;;;5490293;26;20009;-73
2024/04/10 00:07:06;;;;;;;5.30;1.20;;;;;;;;;;5492154;26;20025;-72
2024/04/10 00:09:32;;;;;;;3.40;0.60;;;;;;;;;;5491085;26;20526;-72
2024/04/10 00:11:58;;;;;;;3.85;2.05;;;;;;;;;;5491239;26;20008;-71
2024/04/10 00:14:24;;;;;;;3.67;0.85;;;;;;;;;;5491895;26;19998;-71
2024/04/10 00:16:50;;;;;;;1.55;0.52;;;;;;;;;;5490226;26;20429;-71
2024/04/10 00:19:16;;;;;;;2.45;0.52;;;;;;;;;;5491743;26;20361;-74
2024/04/10 00:21:43;;;;;;;3.70;1.02;;;;;;;;;;5494490;26;20005;-72
2024/04/10 00:24:09;;;;;;;2.05;0.93;;;;;;;;;;5492062;26;20009;-72
2024/04/10 00:26:35;;;;;;;4.22;0.65;;;;;;;;;;5490104;26;19994;-72
2024/04/10 00:29:02;;;;;;;4.47;0.60;;;;;;;;;;5491713;26;19993;-72
2024/04/10 00:31:28;;;;;;;2.85;1.00;;;;;;;;;;5489085;26;19998;-70
2024/04/10 00:33:54;;;;;;;5.68;1.38;;;;;;;;;;5491924;26;20010;-71
2024/04/10 00:36:20;;;;;;;12.88;0.88;;;;;;;;;;5491453;26;20005;-71
2024/04/10 00:38:46;;;;;;;3.60;0.90;;;;;;;;;;5491177;26;20005;-72
2024/04/10 00:41:13;;;;;;;4.13;0.60;;;;;;;;;;5491295;26;20021;-71
2024/04/10 00:43:39;;;;;;;4.03;0.70;;;;;;;;;;5489910;26;20341;-71
2024/04/10 00:46:14;;;;;;;6.75;1.75;;;;;;;;;;5491201;26;20009;-72
2024/04/10 00:48:40;;;;;;;4.95;0.80;;;;;;;;;;5491268;26;20013;-72
2024/04/10 00:51:13;;;;;;;3.90;1.23;;;;;;;;;;5491208;26;20005;-72
2024/04/10 00:53:40;;;;;;;4.20;0.80;;;;;;;;;;5491493;26;19994;-72
2024/04/10 00:56:08;;;;;;;2.25;0.73;;;;;;;;;;5493117;26;20448;-72
2024/04/10 00:58:34;;;;;;;5.43;0.90;;;;;;;;;;5495201;26;19994;-71
2024/04/10 01:01:01;;;;;;;3.75;0.60;;;;;;;;;;5494870;26;20377;-71
2024/04/10 01:03:27;;;;;;;4.18;0.80;;;;;;;;;;5497470;26;19994;-71
2024/04/10 01:05:58;;;;;;;3.78;0.70;;;;;;;;;;5500167;26;20026;-71
2024/04/10 01:08:24;;;;;;;1.55;0.40;;;;;;;;;;5493604;26;20440;-72
2024/04/10 01:10:50;;;;;;;4.25;0.63;;;;;;;;;;5490876;26;19997;-71
2024/04/10 01:13:18;;;;;;;2.55;0.82;;;;;;;;;;5490394;26;19999;-71
2024/04/10 01:15:44;;;;;;;6.97;0.98;;;;;;;;;;5491311;26;20034;-71
2024/04/10 01:18:11;;;;;;;3.58;0.77;;;;;;;;;;5490404;26;20004;-72
2024/04/10 01:20:37;;;;;;;4.88;0.70;;;;;;;;;;5491455;26;19994;-71
2024/04/10 01:23:04;;;;;;;5.07;0.68;;;;;;;;;;5490612;26;20348;-71
2024/04/10 01:25:30;;;;;;;5.07;1.15;;;;;;;;;;5491412;26;20559;-71
2024/04/10 01:27:56;;;;;;;2.85;0.93;;;;;;;;;;5492303;26;19998;-72
2024/04/10 01:30:22;;;;;;;5.15;1.00;;;;;;;;;;5492858;26;20006;-72
2024/04/10 01:32:48;;;;;;;6.57;0.63;;;;;;;;;;5491819;26;20463;-71
2024/04/10 01:35:14;;;;;;;6.32;0.57;;;;;;;;;;5493271;26;19998;-72
2024/04/10 01:37:40;;;;;;;8.77;1.40;;;;;;;;;;5494985;26;19998;-72
2024/04/10 01:40:06;;;;;;;2.13;1.23;;;;;;;;;;5495234;26;20009;-71
2024/04/10 01:42:33;;;;;;;8.35;1.00;;;;;;;;;;5495370;26;19994;-71
2024/04/10 01:44:59;;;;;;;4.70;0.65;;;;;;;;;;5493930;26;20029;-71
2024/04/10 01:47:25;;;;;;;7.40;1.92;;;;;;;;;;5490490;26;20067;-72
2024/04/10 01:49:51;;;;;;;3.22;0.77;;;;;;;;;;5492567;26;20002;-71
2024/04/10 01:52:17;;;;;;;4.57;0.80;;;;;;;;;;5496319;26;20009;-71
2024/04/10 01:54:45;;;;;;;3.65;0.88;;;;;;;;;;5491922;26;19998;-72
2024/04/10 01:57:11;;;;;;;3.30;0.63;;;;;;;;;;5491523;26;19994;-72
2024/04/10 01:59:37;;;;;;;6.68;0.50;;;;;;;;;;5491456;26;20047;-72
2024/04/10 02:02:03;;;;;;;3.55;0.80;;;;;;;;;;5490416;26;20452;-71
2024/04/10 02:04:29;;;;;;;5.75;1.58;;;;;;;;;;5490923;26;20065;-70
2024/04/10 02:06:55;;;;;;;6.30;0.88;;;;;;;;;;5490132;26;19998;-71
2024/04/10 02:09:21;;;;;;;4.68;1.08;;;;;;;;;;5488539;26;20338;-72
2024/04/10 02:11:47;;;;;;;3.13;0.70;;;;;;;;;;5489614;26;20367;-73
2024/04/10 02:14:13;;;;;;;3.53;1.05;;;;;;;;;;5489998;26;19999;-72
2024/04/10 02:16:40;;;;;;;5.30;0.82;;;;;;;;;;5488293;26;20005;-72
2024/04/10 02:19:06;;;;;;;5.68;1.17;;;;;;;;;;5488131;26;20409;-72
2024/04/10 02:21:32;;;;;;;4.95;0.73;;;;;;;;;;5490348;26;20386;-72
2024/04/10 02:23:58;;;;;;;3.65;0.80;;;;;;;;;;5488481;26;20005;-71
2024/04/10 02:26:24;;;;;;;4.55;1.00;;;;;;;;;;5490030;26;20001;-72
2024/04/10 02:28:51;;;;;;;2.45;0.88;;;;;;;;;;5490605;26;20067;-71
2024/04/10 02:31:17;;;;;;;3.70;0.75;;;;;;;;;;5490463;26;20074;-71
2024/04/10 02:33:43;;;;;;;4.45;1.75;;;;;;;;;;5488287;26;20006;-71
2024/04/10 02:36:09;;;;;;;5.43;0.90;;;;;;;;;;5489733;26;19997;-72
2024/04/10 02:38:36;;;;;;;7.57;1.00;;;;;;;;;;5489443;26;19998;-72
2024/04/10 02:41:03;;;;;;;5.25;0.68;;;;;;;;;;5489657;26;19998;-71
2024/04/10 02:43:29;;;;;;;2.42;0.70;;;;;;;;;;5489052;26;20392;-71
2024/04/10 02:45:58;;;;;;;4.78;0.77;;;;;;;;;;5489287;26;20002;-72
2024/04/10 02:48:25;;;;;;;5.97;0.77;;;;;;;;;;5487451;26;20074;-72
2024/04/10 02:50:51;;;;;;;3.22;0.75;;;;;;;;;;5489592;26;19999;-73
2024/04/10 02:53:17;;;;;;;5.32;0.80;;;;;;;;;;5489082;26;20026;-71
2024/04/10 02:55:47;;;;;;;3.20;0.70;;;;;;;;;;5489304;26;19998;-71
2024/04/10 02:58:13;;;;;;;5.07;1.45;;;;;;;;;;5489938;26;20005;-72
2024/04/10 03:00:45;;;;;;;8.63;1.10;;;;;;;;;;5489974;26;20004;-71
2024/04/10 03:03:12;;;;;;;3.22;1.00;;;;;;;;;;5491608;26;19997;-72
2024/04/10 03:05:42;;;;;;;5.50;1.10;;;;;;;;;;5493790;26;19991;-71
2024/04/10 03:08:10;;;;;;;5.53;0.80;;;;;;;;;;5493937;26;20518;-72
2024/04/10 03:10:36;;;;;;;4.22;0.95;;;;;;;;;;5489157;26;19994;-72
2024/04/10 03:13:02;;;;;;;3.55;0.88;;;;;;;;;;5488846;26;20006;-71
2024/04/10 03:15:28;;;;;;;16.50;1.23;;;;;;;;;;5489671;26;20006;-72
2024/04/10 03:17:54;;;;;;;3.17;1.15;;;;;;;;;;5488428;26;19998;-71
2024/04/10 03:20:20;;;;;;;6.82;1.13;;;;;;;;;;5490670;26;20394;-71
2024/04/10 03:22:47;;;;;;;3.88;1.73;;;;;;;;;;5489334;26;20059;-72
2024/04/10 03:25:13;;;;;;;4.80;1.25;;;;;;;;;;5489729;26;19998;-72
2024/04/10 03:27:40;;;;;;;7.80;1.17;;;;;;;;;;5487869;26;19998;-71
2024/04/10 03:30:10;;;;;;;6.10;0.88;;;;;;;;;;5489143;26;20010;-72
2024/04/10 03:32:38;;;;;;;7.45;1.40;;;;;;;;;;5489200;26;20039;-72
2024/04/10 03:35:04;;;;;;;9.02;1.40;;;;;;;;;;5489442;26;20462;-72
2024/04/10 03:37:32;;;;;;;4.93;0.85;;;;;;;;;;5490397;26;20452;-73
2024/04/10 03:39:58;;;;;;;8.90;1.08;;;;;;;;;;5493404;26;19998;-72
2024/04/10 03:42:24;;;;;;;7.63;1.15;;;;;;;;;;5495195;26;19998;-72
2024/04/10 03:44:50;;;;;;;5.25;1.17;;;;;;;;;;5495589;26;20484;-72
2024/04/10 03:47:16;;;;;;;9.20;1.48;;;;;;;;;;5493756;26;19998;-71
2024/04/10 03:49:42;;;;;;;7.53;1.30;;;;;;;;;;5493311;26;20005;-72
2024/04/10 03:52:09;;;;;;;7.63;1.85;;;;;;;;;;5494201;26;19995;-72
2024/04/10 03:54:35;;;;;;;8.63;2.00;;;;;;;;;;5496458;26;20474;-71
2024/04/10 03:57:01;;;;;;;9.45;1.13;;;;;;;;;;5494784;26;19998;-72
2024/04/10 03:59:27;;;;;;;6.75;1.00;;;;;;;;;;5495460;26;19994;-73
2024/04/10 04:01:56;;;;;;;4.93;1.05;;;;;;;;;;5493005;26;20009;-71
2024/04/10 04:04:22;;;;;;;6.72;1.63;;;;;;;;;;5493616;26;19998;-72
2024/04/10 04:06:49;;;;;;;7.10;1.48;;;;;;;;;;5493194;26;19998;-72
2024/04/10 04:09:17;;;;;;;4.47;1.02;;;;;;;;;;5493530;26;19994;-71
2024/04/10 04:11:43;;;;;;;6.28;1.77;;;;;;;;;;5493967;26;20002;-72
2024/04/10 04:14:09;;;;;;;6.80;1.85;;;;;;;;;;5494513;26;20334;-72
2024/04/10 04:16:35;;;;;;;5.55;1.77;;;;;;;;;;5493305;26;20006;-72
2024/04/10 04:19:01;;;;;;;9.90;1.20;;;;;;;;;;5498199;26;19994;-72
2024/04/10 04:21:28;;;;;;;8.65;1.88;;;;;;;;;;5494892;26;19998;-72
2024/04/10 04:23:54;;;;;;;6.88;1.45;;;;;;;;;;5496464;26;20006;-72
2024/04/10 04:26:20;;;;;;;9.95;1.10;;;;;;;;;;5500107;26;19990;-72
2024/04/10 04:28:47;;;;;;;5.50;1.30;;;;;;;;;;5493390;26;20035;-73
2024/04/10 04:31:14;;;;;;;8.68;1.55;;;;;;;;;;5496385;26;20432;-72
2024/04/10 04:33:41;;;;;;;4.68;1.73;;;;;;;;;;5497314;26;20348;-74
2024/04/10 04:36:07;;;;;;;6.10;1.55;;;;;;;;;;5493374;26;19994;-73
2024/04/10 04:38:33;;;;;;;6.82;1.30;;;;;;;;;;5493936;26;20005;-72
2024/04/10 04:40:59;;;;;;;8.00;1.25;;;;;;;;;;5492347;26;20411;-72
2024/04/10 04:43:26;;;;;;;5.65;1.23;;;;;;;;;;5491164;26;20070;-72
2024/04/10 04:45:52;;;;;;;9.45;1.52;;;;;;;;;;5493929;26;19998;-72
2024/04/10 04:48:18;;;;;;;9.50;1.42;;;;;;;;;;5493395;26;20009;-72
2024/04/10 04:50:46;;;;;;;9.05;1.98;;;;;;;;;;5492378;26;19998;-72
2024/04/10 04:53:12;;;;;;;5.82;2.13;;;;;;;;;;5493202;26;20005;-72
2024/04/10 04:55:39;;;;;;;9.38;1.50;;;;;;;;;;5493002;26;20005;-72
2024/04/10 04:58:05;;;;;;;2.72;1.25;;;;;;;;;;5493927;26;20077;-73
2024/04/10 05:00:31;;;;;;;10.55;1.40;;;;;;;;;;5491596;26;19994;-73
2024/04/10 05:02:58;;;;;;;7.65;1.30;;;;;;;;;;5490617;26;20067;-73
2024/04/10 05:05:24;;;;;;;6.95;2.03;;;;;;;;;;5492035;26;19998;-72
2024/04/10 05:07:50;;;;;;;3.30;1.40;;;;;;;;;;5495587;26;19994;-73
2024/04/10 05:10:16;;;;;;;4.75;1.38;;;;;;;;;;5496645;26;19994;-73
2024/04/10 05:12:43;;;;;;;9.93;2.30;;;;;;;;;;5493957;26;20009;-73
2024/04/10 05:15:13;;;;;;;5.80;1.50;;;;;;;;;;5494929;26;19998;-73
2024/04/10 05:17:42;;;;;;;9.20;1.70;;;;;;;;;;5494553;26;20114;-73
2024/04/10 05:20:11;;;;;;;13.60;2.05;;;;;;;;;;5493562;26;20010;-72
2024/04/10 05:22:38;;;;;;;9.30;1.65;;;;;;;;;;5493857;26;20002;-73
2024/04/10 05:25:05;;;;;;;7.15;1.70;;;;;;;;;;5494582;26;19994;-74
2024/04/10 05:27:31;;;;;;;11.02;1.85;;;;;;;;;;5490025;26;20005;-73
2024/04/10 05:29:59;;;;;;;8.23;2.05;;;;;;;;;;5490639;26;19994;-73
2024/04/10 05:32:26;;;;;;;10.07;1.95;;;;;;;;;;5491010;26;20013;-73
2024/04/10 05:34:52;;;;;;;5.53;1.48;;;;;;;;;;5489885;26;20005;-73
2024/04/10 05:37:19;;;;;;;4.53;1.35;;;;;;;;;;5495050;26;20005;-73
2024/04/10 05:39:45;;;;;;;12.98;1.77;;;;;;;;;;5493949;26;19998;-73
2024/04/10 05:42:11;;;;;;;4.13;1.50;;;;;;;;;;5493805;26;19994;-72
2024/04/10 05:44:37;;;;;;;7.72;1.98;;;;;;;;;;5489403;26;20473;-73
2024/04/10 05:47:03;;;;;;;12.40;1.70;;;;;;;;;;5491554;26;19994;-73
2024/04/10 05:49:31;;;;;;;6.60;2.25;;;;;;;;;;5493004;26;20010;-74
2024/04/10 05:51:58;;;;;;;5.30;1.48;;;;;;;;;;5493844;26;20004;-74
2024/04/10 05:54:27;;;;;;;12.98;1.77;;;;;;;;;;5491604;26;19994;-72
2024/04/10 05:56:53;;;;;;;11.55;1.98;;;;;;;;;;5490528;26;20030;-73
2024/04/10 05:59:19;;;;;;;9.13;2.00;;;;;;;;;;5491466;26;19994;-73
2024/04/10 06:01:45;;;;;;;11.07;1.52;;;;;;;;;;5491850;26;20005;-73
2024/04/10 06:04:11;;;;;;;8.10;1.98;;;;;;;;;;5489360;26;20006;-72
2024/04/10 06:06:37;;;;;;;5.53;2.10;;;;;;;;;;5493536;26;20006;-73
2024/04/10 06:09:03;;;;;;;8.02;1.85;;;;;;;;;;5490104;26;20006;-74
2024/04/10 06:11:30;;;;;;;7.50;1.90;;;;;;;;;;5491015;26;20009;-73
2024/04/10 06:13:59;;;;;;;14.98;3.05;;;;;;;;;;5490052;26;19993;-73
2024/04/10 06:16:25;;;;;;;10.95;2.67;;;;;;;;;;5493561;26;20006;-74
2024/04/10 06:18:51;;;;;;;6.03;1.70;;;;;;;;;;5496366;26;20011;-72
2024/04/10 06:21:17;;;;;;;10.75;2.92;;;;;;;;;;5491350;26;19990;-72
2024/04/10 06:23:43;;;;;;;9.57;2.30;;;;;;;;;;5488939;26;19994;-73
2024/04/10 06:26:10;;;;;;;8.70;2.50;;;;;;;;;;5491687;26;20441;-73
2024/04/10 06:28:36;;;;;;;9.07;1.80;;;;;;;;;;5490745;26;19998;-74
2024/04/10 06:31:03;;;;;;;11.73;2.47;;;;;;;;;;5491020;26;20010;-73
2024/04/10 06:33:29;;;;;;;13.93;2.30;;;;;;;;;;5490114;26;20452;-73
2024/04/10 06:35:59;;;;;;;10.93;2.25;;;;;;;;;;5489401;26;20002;-73
2024/04/10 06:38:25;;;;;;;10.68;2.30;;;;;;;;;;5490694;26;19998;-74
2024/04/10 06:40:58;;;;;;;6.90;1.95;;;;;;;;;;5489403;26;20491;-73
2024/04/10 06:43:25;;;;;;;11.18;2.28;;;;;;;;;;5490097;26;19994;-73
2024/04/10 06:46:09;;;;;;;5.82;1.73;;;;;;;;;;5491176;26;20053;-73
2024/04/10 06:48:35;;;;;;;19.90;2.65;;;;;;;;;;5488994;26;19998;-74
2024/04/10 06:51:02;;;;;;;8.98;2.33;;;;;;;;;;5490293;26;20042;-74
2024/04/10 06:53:29;;;;;;;8.77;2.63;;;;;;;;;;5488202;26;19994;-72
2024/04/10 06:55:56;;;;;;;9.82;2.53;;;;;;;;;;5488539;26;20033;-74
2024/04/10 06:58:22;;;;;;;10.32;2.97;;;;;;;;;;5489748;26;20037;-73
2024/04/10 07:02:24;;;;;;;7.55;2.08;;;;;;;;;;5545554;25;20857;-73
2024/04/10 07:04:50;;;;;;;8.13;2.17;;;;;;;;;;5543740;25;20001;-74
2024/04/10 07:07:16;;;;;;;7.07;1.70;;;;;;;;;;5546901;25;19993;-73
2024/04/10 07:09:42;;;;;;;8.52;2.53;;;;;;;;;;5544999;25;19989;-72
2024/04/10 07:12:08;;;;;;;11.32;4.05;;;;;;;;;;5546650;25;20004;-74
2024/04/10 07:14:36;;;;;;;12.45;2.75;;;;;;;;;;5545431;25;20436;-74
2024/04/10 07:17:04;;;;;;;9.27;2.20;;;;;;;;;;5545895;25;20328;-75
2024/04/10 07:19:37;;;;;;;8.38;2.20;;;;;;;;;;5543934;25;20088;-73
2024/04/10 07:22:09;;;;;;;20.67;2.90;;;;;;;;;;5549143;25;19998;-71
2024/04/10 07:24:35;;;;;;;10.98;3.35;;;;;;;;;;5524336;25;19997;-75
2024/04/10 07:27:01;;;;;;;14.00;2.95;;;;;;;;;;5548400;25;20034;-72
2024/04/10 07:29:28;;;;;;;11.07;2.75;;;;;;;;;;5547535;25;20004;-75
2024/04/10 07:31:54;;;;;;;37.13;6.63;;;;;;;;;;5544221;25;20019;-73
2024/04/10 07:34:20;;;;;;;8.15;2.53;;;;;;;;;;5545267;25;19993;-73
2024/04/10 07:36:46;;;;;;;9.07;2.13;;;;;;;;;;5542052;25;20001;-75
2024/04/10 07:39:12;;;;;;;18.45;3.15;;;;;;;;;;5545798;25;20045;-74
2024/04/10 07:41:39;;;;;;;10.90;2.85;;;;;;;;;;5542428;25;19997;-74
2024/04/10 07:44:05;;;;;;;8.82;2.17;;;;;;;;;;5542810;25;20008;-73
2024/04/10 07:46:31;;;;;;;8.23;2.40;;;;;;;;;;5542418;25;20005;-73
2024/04/10 07:48:58;;;;;;;7.93;1.77;;;;;;;;;;5542180;25;19997;-74
2024/04/10 07:51:25;;;;;;;11.35;3.35;;;;;;;;;;5544497;25;19994;-73
2024/04/10 07:53:51;;;;;;;4.95;2.33;;;;;;;;;;5545228;25;20011;-74
2024/04/10 07:56:17;;;;;;;13.35;2.97;;;;;;;;;;5542445;25;20106;-73
2024/04/10 07:58:43;;;;;;;10.18;2.35;;;;;;;;;;5543438;25;20008;-73
2024/04/10 08:01:10;;;;;;;5.63;2.08;;;;;;;;;;5543844;25;19989;-74
2024/04/10 08:03:36;;;;;;;11.20;3.55;;;;;;;;;;5543518;25;20002;-74
2024/04/10 08:06:07;;;;;;;8.52;2.05;;;;;;;;;;5543601;25;20120;-72
2024/04/10 08:08:35;;;;;;;9.98;2.83;;;;;;;;;;5542279;25;20398;-73
2024/04/10 08:11:04;;;;;;;6.72;2.33;;;;;;;;;;5546031;25;20012;-72
2024/04/10 08:13:31;;;;;;;11.77;2.33;;;;;;;;;;5529146;25;20495;-73
2024/04/10 08:16:01;;;;;;;5.40;1.83;;;;;;;;;;5529880;26;20009;-73
2024/04/10 08:18:28;;;;;;;8.57;2.38;;;;;;;;;;5529192;25;20316;-74
2024/04/10 08:21:00;;;;;;;14.52;3.17;;;;;;;;;;5527876;26;20097;-74
2024/04/10 08:23:27;;;;;;;6.35;2.10;;;;;;;;;;5526107;25;20539;-72
2024/04/10 08:25:53;;;;;;;12.57;3.08;;;;;;;;;;5526069;26;20009;-73
2024/04/10 08:28:20;;;;;;;11.50;2.13;;;;;;;;;;5526007;26;20001;-73
2024/04/10 08:30:47;;;;;;;7.22;1.83;;;;;;;;;;5526509;26;20009;-71
2024/04/10 08:33:13;;;;;;;17.92;3.53;;;;;;;;;;5525588;26;19993;-73
2024/04/10 08:35:40;;;;;;;10.40;2.67;;;;;;;;;;5526200;25;20068;-72
2024/04/10 08:38:06;;;;;;;14.80;3.30;;;;;;;;;;5525956;25;20347;-73
2024/04/10 08:40:37;;;;;;;6.63;2.53;;;;;;;;;;5525487;26;20355;-73
2024/04/10 08:43:05;;;;;;;6.90;2.13;;;;;;;;;;5523504;26;20034;-75
2024/04/10 08:45:32;;;;;;;7.97;2.13;;;;;;;;;;5525820;26;20014;-72
2024/04/10 08:48:00;;;;;;;7.55;2.60;;;;;;;;;;5525703;26;19997;-74
2024/04/10 08:50:26;;;;;;;14.05;3.45;;;;;;;;;;5525244;26;20008;-74
2024/04/10 08:52:54;;;;;;;7.57;2.22;;;;;;;;;;5524798;25;20460;-72
2024/04/10 08:55:20;;;;;;;6.72;2.25;;;;;;;;;;5526036;25;20012;-75
2024/04/10 08:57:46;;;;;;;12.18;2.50;;;;;;;;;;5526074;26;20008;-71
2024/04/10 09:00:12;;;;;;;8.27;2.70;;;;;;;;;;5526053;25;19997;-73
2024/04/10 09:02:38;;;;;;;7.20;2.45;;;;;;;;;;5526216;26;20332;-74
2024/04/10 09:05:04;;;;;;;6.03;2.53;;;;;;;;;;5526791;26;20436;-72
2024/04/10 09:07:30;;;;;;;10.40;2.38;;;;;;;;;;5525714;25;20440;-74
2024/04/10 09:10:07;;;;;;;7.10;2.58;;;;;;;;;;5525315;25;20527;-72
2024/04/10 09:12:33;;;;;;;6.88;2.05;;;;;;;;;;5522738;26;20013;-74
2024/04/10 09:15:09;;;;;;;17.10;3.60;;;;;;;;;;5525564;25;20416;-71
2024/04/10 09:17:35;;;;;;;7.78;2.47;;;;;;;;;;5525895;26;20008;-73
2024/04/10 09:20:11;;;;;;;7.72;2.13;;;;;;;;;;5525679;26;20021;-72
2024/04/10 09:22:37;;;;;;;9.80;1.85;;;;;;;;;;5524715;26;20339;-73
2024/04/10 09:25:13;;;;;;;8.55;1.98;;;;;;;;;;5524304;26;19993;-73
2024/04/10 09:27:39;;;;;;;6.30;2.00;;;;;;;;;;5526351;26;19994;-74
2024/04/10 09:30:06;;;;;;;6.28;2.30;;;;;;;;;;5528198;26;19993;-73
2024/04/10 09:32:33;;;;;;;7.60;2.40;;;;;;;;;;5525381;26;20021;-75
2024/04/10 09:35:00;;;;;;;13.32;3.13;;;;;;;;;;5529377;26;20351;-75
2024/04/10 09:37:27;;;;;;;8.95;2.22;;;;;;;;;;5529359;26;20007;-75
2024/04/10 09:39:53;;;;;;;11.35;2.53;;;;;;;;;;5530638;26;20004;-74
2024/04/10 09:42:27;;;;;;;10.85;2.88;;;;;;;;;;5528366;26;19989;-73
2024/04/10 09:44:58;;;;;;;8.98;2.58;;;;;;;;;;5527552;26;19997;-75
2024/04/10 09:47:24;;;;;;;;;;;;;;;;;;5530491;26;19997;-74
2024/04/10 09:49:51;;;;;;;10.82;2.42;;;;;;;;;;5532970;26;19931;-75
2024/04/10 09:52:18;;;;;;;9.50;2.13;;;;;;;;;;5532447;26;19998;-74
2024/04/10 09:54:45;;;;;;;8.07;1.80;;;;;;;;;;5531793;26;19997;-74
2024/04/10 09:57:12;;;;;;;11.15;2.42;;;;;;;;;;5530302;26;20408;-73
2024/04/10 09:59:38;;;;;;;10.07;2.40;;;;;;;;;;5528666;26;20443;-75
2024/04/10 10:02:15;;;;;;;7.32;2.53;;;;;;;;;;5527391;26;19998;-73
2024/04/10 10:04:41;;;;;;;4.07;1.35;;;;;;;;;;5527583;26;20005;-72
2024/04/10 10:07:08;;;;;;;7.85;1.42;;;;;;;;;;5527852;26;19998;-74
2024/04/10 10:09:34;;;;;;;4.93;1.42;;;;;;;;;;5526878;26;20021;-74
2024/04/10 10:12:00;;;;;;;3.83;0.93;;;;;;;;;;5526173;26;20061;-73
2024/04/10 10:14:27;;;;;;;4.20;1.40;;;;;;;;;;5527356;26;20404;-75
2024/04/10 10:16:54;;;;;;;5.47;1.35;;;;;;;;;;5523564;26;20012;-72
2024/04/10 10:19:25;;;;;;;2.47;1.08;;;;;;;;;;5525641;26;19998;-74
2024/04/10 10:22:00;;;;;;;3.17;0.95;;;;;;;;;;5523596;26;20008;-72
2024/04/10 10:24:29;;;;;;;4.05;1.55;;;;;;;;;;5525584;26;20086;-70
2024/04/10 10:26:59;;;;;;;7.20;1.65;;;;;;;;;;5524779;26;20001;-74
2024/04/10 10:29:27;;;;;;;7.05;1.25;;;;;;;;;;5525267;26;20003;-74
2024/04/10 10:32:06;;;;;;;3.00;1.23;;;;;;;;;;5523882;26;19993;-74
2024/04/10 10:34:32;;;;;;;3.22;1.05;;;;;;;;;;5525816;26;20005;-73
2024/04/10 10:37:06;;;;;;;5.78;1.65;;;;;;;;;;5523941;26;20025;-71
2024/04/10 10:39:32;;;;;;;5.05;1.25;;;;;;;;;;5524484;26;20073;-72
2024/04/10 10:42:02;;;;;;;6.88;1.45;;;;;;;;;;5521980;26;20009;-73
2024/04/10 10:44:28;;;;;;;5.03;1.10;;;;;;;;;;5524763;26;20008;-72
2024/04/10 10:46:57;;;;;;;5.10;1.73;;;;;;;;;;5523493;26;20018;-72
2024/04/10 10:49:25;;;;;;;7.03;1.48;;;;;;;;;;5526951;26;20004;-74
2024/04/10 10:51:52;;;;;;;6.97;1.40;;;;;;;;;;5524305;26;20302;-74
2024/04/10 10:54:18;;;;;;;3.28;0.90;;;;;;;;;;5527417;26;20462;-73
2024/04/10 10:56:44;;;;;;;2.67;0.60;;;;;;;;;;5527158;26;20008;-75
2024/04/10 10:59:10;;;;;;;3.85;1.00;;;;;;;;;;5526934;26;20008;-74
2024/04/10 11:01:36;;;;;;;5.40;1.98;;;;;;;;;;5523561;26;20002;-76
2024/04/10 11:04:09;;;;;;;5.00;1.10;;;;;;;;;;5527615;26;20005;-76
2024/04/10 11:06:35;;;;;;;5.00;1.30;;;;;;;;;;5525137;26;20362;-74
2024/04/10 11:09:09;;;;;;;5.75;1.23;;;;;;;;;;5525179;26;19997;-75
2024/04/10 11:11:36;;;;;;;2.67;1.08;;;;;;;;;;5526736;26;20017;-74
2024/04/10 11:14:03;;;;;;;3.25;0.90;;;;;;;;;;5525227;26;20020;-75
2024/04/10 11:16:33;;;;;;;3.33;0.90;;;;;;;;;;5524209;26;19997;-73
2024/04/10 11:19:04;;;;;;;5.38;0.90;;;;;;;;;;5524205;26;19994;-76
2024/04/10 11:21:30;;;;;;;4.37;1.60;;;;;;;;;;5517915;26;20092;-75
2024/04/10 11:23:56;;;;;;;5.68;1.20;;;;;;;;;;5523049;26;19997;-76
2024/04/10 11:26:22;;;;;;;3.28;1.38;;;;;;;;;;5522741;26;20008;-73
2024/04/10 11:28:53;;;;;;;4.53;1.70;;;;;;;;;;5525725;26;19997;-76
2024/04/10 11:31:19;;;;;;;6.88;1.15;;;;;;;;;;5525165;26;20008;-75
2024/04/10 11:33:45;;;;;;;5.82;0.70;;;;;;;;;;5523044;26;20001;-76
2024/04/10 11:36:11;;;;;;;4.75;0.93;;;;;;;;;;5523448;26;20070;-75
2024/04/10 11:38:38;;;;;;;3.75;1.13;;;;;;;;;;5525481;26;20006;-74
2024/04/10 11:41:07;;;;;;;2.63;0.80;;;;;;;;;;5523921;26;20039;-74
2024/04/10 11:43:34;;;;;;;19.70;1.52;;;;;;;;;;5522372;26;20002;-74
2024/04/10 11:46:00;;;;;;;5.13;0.93;;;;;;;;;;5523777;26;20000;-74
2024/04/10 11:48:26;;;;;;;3.35;0.70;;;;;;;;;;5527146;26;20452;-72
2024/04/10 11:50:52;;;;;;;3.63;1.25;;;;;;;;;;5527863;26;19997;-72
2024/04/10 11:53:18;;;;;;;2.85;0.57;;;;;;;;;;5527935;26;20001;-73
2024/04/10 11:55:44;;;;;;;2.95;1.10;;;;;;;;;;5529508;26;20068;-76
2024/04/10 11:58:11;;;;;;;4.18;0.98;;;;;;;;;;5527959;26;20107;-74
2024/04/10 12:00:37;;;;;;;4.90;0.90;;;;;;;;;;5527709;26;19998;-73
2024/04/10 12:03:03;;;;;;;2.10;0.85;;;;;;;;;;5525674;26;20081;-74
2024/04/10 12:05:29;;;;;;;7.30;1.30;;;;;;;;;;5528084;26;20005;-75
2024/04/10 12:07:56;;;;;;;7.45;1.17;;;;;;;;;;5528127;26;20031;-73
2024/04/10 12:10:22;;;;;;;7.00;1.13;;;;;;;;;;5526078;26;20028;-75
2024/04/10 12:12:48;;;;;;;10.88;2.53;;;;;;;;;;5527111;26;19990;-75
2024/04/10 12:15:14;;;;;;;11.40;1.95;;;;;;;;;;5525382;26;20030;-73
2024/04/10 12:17:40;;;;;;;16.05;2.45;;;;;;;;;;5527449;26;20008;-74
2024/04/10 12:20:07;;;;;;;6.97;1.75;;;;;;;;;;5527485;26;20004;-75
2024/04/10 12:22:33;;;;;;;3.20;0.93;;;;;;;;;;5527297;26;19997;-74
2024/04/10 12:24:59;;;;;;;6.53;1.35;;;;;;;;;;5526494;26;20008;-73
2024/04/10 12:27:25;;;;;;;8.60;1.58;;;;;;;;;;5528968;26;20005;-74
2024/04/10 12:29:52;;;;;;;6.90;1.52;;;;;;;;;;5527138;26;20043;-75
2024/04/10 12:32:18;;;;;;;4.80;1.10;;;;;;;;;;5524711;26;20012;-73
2024/04/10 12:34:44;;;;;;;9.70;1.92;;;;;;;;;;5530079;26;20444;-75
2024/04/10 12:39:54;;;;;;;6.63;1.13;;;;;;;;;;5529981;26;20327;-73
2024/04/10 12:42:20;;;;;;;1.85;0.60;;;;;;;;;;5527923;26;20392;-75
2024/04/10 12:44:46;;;;;;;2.88;1.08;;;;;;;;;;5528227;26;20408;-74
2024/04/10 12:47:13;;;;;;;4.00;0.70;;;;;;;;;;5525367;26;20004;-76
2024/04/10 12:49:39;;;;;;;4.80;1.40;;;;;;;;;;5524632;26;20022;-74
2024/04/10 12:52:05;;;;;;;5.60;0.68;;;;;;;;;;5526701;26;19997;-75
2024/04/10 12:54:31;;;;;;;6.32;0.82;;;;;;;;;;5527293;26;19994;-74
2024/04/10 12:56:58;;;;;;;9.27;0.90;;;;;;;;;;5528272;26;20008;-74
2024/04/10 12:59:24;;;;;;;11.82;1.58;;;;;;;;;;5528694;26;19997;-73
2024/04/10 13:01:53;;;;;;;3.40;0.65;;;;;;;;;;5525846;26;19997;-74
2024/04/10 13:04:19;;;;;;;3.47;1.52;;;;;;;;;;5527886;26;20080;-75
2024/04/10 13:06:46;;;;;;;2.35;1.00;;;;;;;;;;5528201;26;20001;-75
2024/04/10 13:09:12;;;;;;;3.08;0.90;;;;;;;;;;5528861;26;19998;-74
2024/04/10 13:11:39;;;;;;;5.07;1.10;;;;;;;;;;5526744;26;20007;-74
2024/04/10 13:14:05;;;;;;;6.88;1.33;;;;;;;;;;5530511;26;20001;-76
2024/04/10 13:16:31;;;;;;;9.07;1.70;;;;;;;;;;5528048;26;19993;-72
2024/04/10 13:18:57;;;;;;;8.10;2.35;;;;;;;;;;5525638;26;20354;-74
2024/04/10 13:21:23;;;;;;;1.27;0.63;;;;;;;;;;5525627;26;19997;-74
2024/04/10 13:23:49;;;;;;;2.85;0.57;;;;;;;;;;5526349;26;20487;-75
2024/04/10 13:26:15;;;;;;;1.65;0.75;;;;;;;;;;5525230;26;20008;-73
2024/04/10 13:28:42;;;;;;;5.38;0.93;;;;;;;;;;5504270;26;20013;-73
2024/04/10 13:31:22;;;;;;;8.88;1.70;;;;;;;;;;5486278;26;19994;-73
2024/04/10 13:33:49;;;;;;;4.82;1.20;;;;;;;;;;5488054;26;20005;-73
2024/04/10 13:36:16;;;;;;;5.95;1.38;;;;;;;;;;5488154;26;19998;-74
2024/04/10 13:38:43;;;;;;;2.30;0.82;;;;;;;;;;5488642;26;19990;-73
2024/04/10 13:41:10;;;;;;;11.15;1.55;;;;;;;;;;5489381;26;19994;-75
2024/04/10 13:43:36;;;;;;;6.22;0.98;;;;;;;;;;5488838;26;20009;-74
2024/04/10 13:46:07;;;;;;;4.32;1.10;;;;;;;;;;5490321;26;20061;-75
2024/04/10 13:48:33;;;;;;;4.50;1.27;;;;;;;;;;5487732;26;19994;-73
2024/04/10 13:50:59;;;;;;;6.60;1.20;;;;;;;;;;5486787;26;20008;-74
2024/04/10 13:53:25;;;;;;;2.47;0.95;;;;;;;;;;5489991;26;20018;-73
2024/04/10 13:55:52;;;;;;;2.47;0.70;;;;;;;;;;5488564;26;20067;-74
2024/04/10 13:58:18;;;;;;;2.75;1.20;;;;;;;;;;5487828;26;19994;-75
2024/04/10 14:00:44;;;;;;;3.08;1.17;;;;;;;;;;5487142;26;20002;-75
2024/04/10 14:03:10;;;;;;;4.35;0.90;;;;;;;;;;5488391;26;19998;-74
2024/04/10 14:05:36;;;;;;;6.05;0.90;;;;;;;;;;5489338;26;20005;-73
2024/04/10 14:08:03;;;;;;;2.38;0.85;;;;;;;;;;5488897;26;20005;-73
2024/04/10 14:10:29;;;;;;;5.47;1.27;;;;;;;;;;5487140;26;19998;-72
2024/04/10 14:12:55;;;;;;;4.18;0.70;;;;;;;;;;5486649;26;20001;-74
2024/04/10 14:15:21;;;;;;;3.15;1.27;;;;;;;;;;5488801;26;19994;-74
2024/04/10 14:17:47;;;;;;;1.92;1.05;;;;;;;;;;5488661;26;20005;-74
2024/04/10 14:20:13;;;;;;;4.63;0.95;;;;;;;;;;5489191;26;20009;-75
2024/04/10 14:22:39;;;;;;;5.47;0.90;;;;;;;;;;5487059;26;20005;-74
2024/04/10 14:25:05;;;;;;;3.40;0.80;;;;;;;;;;5487463;26;20022;-75
2024/04/10 14:27:31;;;;;;;3.42;1.13;;;;;;;;;;5489984;26;20326;-72
2024/04/10 14:29:57;;;;;;;3.42;0.90;;;;;;;;;;5489141;26;20344;-73
2024/04/10 14:32:24;;;;;;;3.05;0.88;;;;;;;;;;5488050;26;19998;-73
2024/04/10 14:34:50;;;;;;;6.63;1.35;;;;;;;;;;5489403;26;20070;-74
2024/04/10 14:37:17;;;;;;;3.65;1.38;;;;;;;;;;5488666;26;19998;-75
2024/04/10 14:39:44;;;;;;;2.72;0.70;;;;;;;;;;5486809;26;20058;-74
2024/04/10 14:42:10;;;;;;;5.68;1.00;;;;;;;;;;5487567;26;20367;-75
2024/04/10 14:44:45;;;;;;;2.30;0.77;;;;;;;;;;5487165;26;20039;-74